ADDS METAR Data INFO
IDs: Format: Raw Decoded Include TAF

Data at: 2224 UTC 24 Jun 2018

KGAO 242215Z AUTO 20007KT 10SM CLR 32/23 A3000 RMK AO2 T03170226
KGAO 242155Z AUTO 21008KT 10SM CLR 32/22 A3001 RMK AO2 T03160216
KGAO 242135Z AUTO 19009KT 10SM CLR 32/22 A3001 RMK AO2 T03160216
KGAO 242115Z AUTO 22009KT 10SM CLR 32/21 A3001 RMK AO2 T03200214
KGAO 242055Z AUTO 20008KT 10SM CLR 32/23 A3001 RMK AO2 T03220225
KGAO 242035Z AUTO 20008KT 10SM SCT030 32/22 A3000 RMK AO2 T03230223
KGAO 242015Z AUTO 19010KT 10SM SCT032 33/23 A3001 RMK AO2 T03260226
KGAO 241955Z AUTO 18010KT 10SM SCT032 32/22 A3001 RMK AO2 T03240218
KGAO 241935Z AUTO 19009G15KT 10SM SCT031 32/23 A3002 RMK AO2 T03220225
KGAO 241915Z AUTO 23010KT 10SM SCT031 32/22 A3002 RMK AO2 T03230224
KGAO 241855Z AUTO 17008KT 10SM SCT031 32/22 A3003 RMK AO2 T03220223
KGAO 241835Z AUTO 21007KT 170V230 10SM BKN031 BKN043 32/23 A3003 RMK AO2 T03160227
KGAO 241815Z AUTO 18007KT 10SM SCT031 BKN041 32/23 A3004 RMK AO2 T03200226
KGAO 241755Z AUTO 19007KT 10SM SCT031 SCT041 32/22 A3004 RMK AO2 T03190223 10322 20281
KGAO 241735Z AUTO 17007KT 10SM SCT031 SCT043 32/22 A3004 RMK AO2 T03200219
KGAO 241715Z AUTO 16008KT 10SM SCT029 SCT034 32/23 A3004 RMK AO2 T03180225
KGAO 241655Z AUTO 19009KT 10SM SCT029 SCT043 SCT050 32/22 A3004 RMK AO2 T03170221
KGAO 241635Z AUTO 19007KT 10SM SCT027 SCT036 BKN050 31/23 A3004 RMK AO2 T03060229
KGAO 241615Z AUTO 20008KT 10SM SCT027 BKN033 31/22 A3003 RMK AO2 T03090224
KGAO 241555Z AUTO 21010KT 10SM SCT025 SCT032 31/23 A3003 RMK AO2 T03120225
KGAO 241535Z AUTO 20010KT 10SM SCT025 31/23 A3002 RMK AO2 T03050226
KGAO 241520Z AUTO 21010KT 10SM SCT025 31/23 A3002 RMK AO2 T03090228
KGAO 241455Z AUTO 20011KT 10SM SCT023 31/23 A3001 RMK AO2 T03060232
KGAO 241435Z AUTO 21009KT 10SM CLR 31/23 A3000 RMK AO2 T03070231
KGAO 241415Z AUTO 20010G16KT 10SM CLR 31/23 A3000 RMK AO2 LTG DSNT SW T03080230
KGAO 241355Z AUTO 21010G15KT 10SM SCT021 SCT027 30/23 A3001 RMK AO2 T03030231
KGAO 241335Z AUTO 20008KT 10SM SCT023 30/23 A3000 RMK AO2 T03010233
KGAO 241315Z AUTO 21006KT 10SM SCT021 29/23 A3000 RMK AO2 T02870233
KGAO 241255Z AUTO 21008KT 10SM SCT019 SCT033 29/24 A3000 RMK AO2 T02900235
KGAO 241235Z AUTO 21006KT 10SM CLR 29/24 A3000 RMK AO2 T02900236
KGAO 241215Z AUTO 22007KT 10SM CLR 29/23 A2999 RMK AO2 T02850233
KGAO 241155Z AUTO 21008KT 10SM CLR 28/23 A2999 RMK AO2 T02800231 10280 20275
KGAO 241135Z AUTO 21008KT 10SM CLR 28/23 A2999 RMK AO2 T02790231
KGAO 241115Z AUTO 21010KT 10SM SCT020 SCT026 SCT050 28/23 A2998 RMK AO2 T02770229
KGAO 241055Z AUTO 20009KT 10SM SCT020 BKN026 BKN050 28/23 A2999 RMK AO2 T02780230
KGAO 241035Z AUTO 19006KT 10SM SCT024 28/23 A2998 RMK AO2 T02760227
KGAO 241015Z AUTO 21010KT 10SM SCT022 SCT027 SCT034 28/23 A2998 RMK AO2 T02760231
KGAO 240955Z AUTO 20009KT 10SM BKN022 28/24 A2997 RMK AO2 T02760236
KGAO 240935Z AUTO 19006KT 10SM BKN020 SCT032 28/24 A2997 RMK AO2 T02760235
KGAO 240915Z AUTO 19006KT 10SM BKN020 BKN028 BKN046 28/24 A2996 RMK AO2 T02780238
KGAO 240855Z AUTO 19008KT 10SM SCT023 28/24 A2996 RMK AO2 T02750235
KGAO 240835Z AUTO 19007KT 10SM CLR 28/24 A2995 RMK AO2 T02750238
KGAO 240815Z AUTO 19008KT 10SM CLR 28/24 A2995 RMK AO2 T02770236
KGAO 240755Z AUTO 19007KT 10SM CLR 28/24 A2995 RMK AO2 T02770235
KGAO 240735Z AUTO 18011KT 10SM SCT019 28/24 A2995 RMK AO2 T02780236
KGAO 240715Z AUTO 18006KT 10SM SCT019 28/24 A2995 RMK AO2 T02770238
KGAO 240655Z AUTO 18007KT 10SM SCT019 SCT025 28/24 A2995 RMK AO2 T02760237
KGAO 240635Z AUTO 18008KT 10SM BKN019 BKN027 BKN041 28/24 A2995 RMK AO2 T02790238
KGAO 240615Z AUTO 17007KT 10SM BKN019 BKN029 BKN042 28/24 A2995 RMK AO2 T02800240
KGAO 240555Z AUTO 17008KT 10SM SCT019 SCT033 SCT045 28/24 A2995 RMK AO2 T02760240 10301 20267 403230266
KGAO 240535Z AUTO 17007KT 10SM CLR 28/24 A2995 RMK AO2 T02760240
KGAO 240515Z AUTO 16008KT 10SM CLR 28/24 A2995 RMK AO2 T02760238
KGAO 240455Z AUTO 16006KT 10SM CLR 27/24 A2996 RMK AO2 T02720238
KGAO 240435Z AUTO 16005KT 10SM SCT019 28/24 A2997 RMK AO2 T02750237
KGAO 240415Z AUTO 16006KT 10SM SCT021 SCT030 27/24 A2997 RMK AO2 T02730236
KGAO 240355Z AUTO 16004KT 10SM SCT021 27/24 A2997 RMK AO2 T02700235
KGAO 240335Z AUTO 16004KT 10SM CLR 27/23 A2996 RMK AO2 T02670231
KGAO 240315Z AUTO 18005KT 10SM CLR 27/23 A2995 RMK AO2 T02720230
KGAO 240255Z AUTO 18006KT 10SM CLR 27/23 A2994 RMK AO2 T02740230
KGAO 240235Z AUTO 19008KT 10SM CLR 28/23 A2994 RMK AO2 LTG DSNT SE T02760231
KGAO 240215Z AUTO 17006KT 10SM CLR 28/23 A2992 RMK AO2 LTG DSNT SE T02750229
KGAO 240155Z AUTO 18007KT 10SM CLR 28/23 A2992 RMK AO2 T02750230
KGAO 240135Z AUTO 18006KT 10SM CLR 28/23 A2992 RMK AO2 T02750229
KGAO 240115Z AUTO 18006KT 10SM CLR 28/23 A2992 RMK AO2 T02760228
KGAO 240055Z AUTO 19006KT 10SM SCT025 28/23 A2992 RMK AO2 T02820228
KGAO 240035Z AUTO 19008KT 10SM SCT023 29/23 A2992 RMK AO2 T02900230
KGAO 240015Z AUTO 19008KT 10SM CLR 30/23 A2992 RMK AO2 T02970228
KGAO 232355Z AUTO 21009KT 10SM CLR 30/23 A2991 RMK AO2 T03020226 10323 20302
KGAO 232335Z AUTO 19008KT 10SM CLR 31/23 A2991 RMK AO2 T03050228
KGAO 232315Z AUTO 20010KT 10SM CLR 31/23 A2991 RMK AO2 T03090225
KGAO 232255Z AUTO 19010KT 10SM CLR 31/23 A2991 RMK AO2 T03110225
KGAO 232235Z AUTO 19008KT 10SM SCT028 31/23 A2992 RMK AO2 T03120227
KGAO 232215Z AUTO 21010KT 10SM CLR 32/23 A2992 RMK AO2 T03150227
KGAO 232155Z AUTO 20009KT 10SM SCT028 31/23 A2993 RMK AO2 T03110228
KGAO 232135Z AUTO 20010KT 10SM SCT028 32/23 A2993 RMK AO2 T03180225
KGAO 232115Z AUTO 19011KT 10SM SCT029 32/23 A2994 RMK AO2 T03200227
KGAO 232055Z AUTO 20011KT 10SM CLR 32/23 A2994 RMK AO2 T03200225
KGAO 232035Z AUTO 19011G17KT 10SM CLR 32/23 A2995 RMK AO2 T03210229
KGAO 232015Z AUTO 19007KT 10SM SCT029 SCT034 32/22 A2995 RMK AO2 T03180221
KGAO 231955Z AUTO 22010KT 10SM SCT029 SCT034 32/23 A2996 RMK AO2 T03200226
KGAO 231935Z AUTO 24011KT 10SM SCT027 32/23 A2996 RMK AO2 T03230229
KGAO 231915Z AUTO 22010G16KT 10SM SCT027 32/23 A2997 RMK AO2 T03180232
KGAO 231855Z AUTO 21010G15KT 10SM SCT029 SCT034 32/23 A2997 RMK AO2 T03200227
KGAO 231835Z AUTO 21012G15KT 10SM CLR 31/22 A2997 RMK AO2 T03130224
KGAO 231815Z AUTO 22011G16KT 10SM SCT029 SCT036 SCT042 32/23 A2999 RMK AO2 T03170225
KGAO 231755Z AUTO 24012KT 10SM BKN029 32/23 A2998 RMK AO2 T03190227 10320 20277
KGAO 231735Z AUTO 24011KT 10SM CLR 32/22 A2999 RMK AO2 T03170223
KGAO 231715Z AUTO 21011G16KT 10SM CLR 32/23 A2999 RMK AO2 T03160226
KGAO 231655Z AUTO 21012KT 10SM CLR 32/23 A2999 RMK AO2 T03160226
KGAO 231635Z AUTO 24012G16KT 10SM CLR 32/23 A2999 RMK AO2 T03160226
KGAO 231615Z AUTO 23013KT 10SM SCT026 SCT050 31/22 A3000 RMK AO2 T03120224
KGAO 231555Z AUTO 21012G17KT 10SM SCT026 31/23 A2999 RMK AO2 T03120226
KGAO 231535Z AUTO 23013KT 10SM BKN024 BKN037 31/23 A2998 RMK AO2 T03110228
KGAO 231515Z AUTO 21012KT 10SM SCT024 31/23 A2998 RMK AO2 T03050228
KGAO 231455Z AUTO 22009KT 10SM SCT022 SCT034 SCT041 30/23 A2998 RMK AO2 T03010229
KGAO 231435Z AUTO 22012G16KT 10SM SCT022 SCT029 SCT035 29/23 A2997 RMK AO2 T02940228
KGAO 231415Z AUTO 22010G16KT 10SM SCT024 BKN035 30/23 A2997 RMK AO2 T03000227
KGAO 231355Z AUTO 21010G15KT 10SM SCT024 SCT030 30/22 A2997 RMK AO2 T02970224
KGAO 231335Z AUTO 23010KT 10SM SCT022 SCT028 30/23 A2997 RMK AO2 T02970230
KGAO 231315Z AUTO 23012KT 10SM SCT022 SCT028 30/23 A2996 RMK AO2 T02950229
KGAO 231255Z AUTO 22011G15KT 10SM SCT021 29/23 A2996 RMK AO2 T02900230
KGAO 231235Z AUTO 21009KT 10SM SCT023 SCT029 29/23 A2996 RMK AO2 T02870229
KGAO 231215Z AUTO 21008KT 10SM CLR 28/23 A2995 RMK AO2 T02810230
KGAO 231155Z AUTO 22007KT 10SM SCT019 28/24 A2995 RMK AO2 T02770235 10280 20266
KGAO 231135Z AUTO 22008KT 10SM CLR 28/23 A2995 RMK AO2 T02750231
KGAO 231115Z AUTO 21007KT 10SM CLR 27/23 A2994 RMK AO2 T02740232
KGAO 231055Z AUTO 22008KT 10SM SCT020 28/23 A2993 RMK AO2 T02760227
KGAO 231035Z AUTO 21010KT 10SM SCT020 28/23 A2993 RMK AO2 T02760231